Time;durP1;ratioP1;P1;durP2;ratioP2;P2;SDS_P1;SDS_P2;PMS_P1;PMS_P2;Temp;Humidity;BMP_temperature;BMP_pressure;BME280_temperature;BME280_humidity;BME280_pressure;Samples;Min_cycle;Max_cycle;Signal;HPM_P1;HPM_P2
2022/01/16 00:02:08;;;;;;;27.23;6.68;;;;;;;2.39;83.75;101662.31;5033643;28;20072;-61
2022/01/16 00:04:11;;;;;;;30.40;7.35;;;;;;;2.42;83.18;101654.47;5023940;28;20096;-60
2022/01/16 00:06:42;;;;;;;25.40;6.63;;;;;;;2.40;83.18;101650.16;5038596;28;20064;-60
2022/01/16 00:09:09;;;;;;;18.13;6.65;;;;;;;2.28;83.89;101651.97;5038416;28;20075;-59
2022/01/16 00:11:37;;;;;;;23.85;7.00;;;;;;;2.23;84.44;101658.97;5032892;28;20128;-61
2022/01/16 00:14:05;;;;;;;24.60;7.20;;;;;;;2.28;83.89;101657.19;5025007;28;20379;-60
2022/01/16 00:16:32;;;;;;;32.08;8.05;;;;;;;2.30;83.67;101654.59;5039408;28;20136;-59
2022/01/16 00:19:00;;;;;;;34.60;8.27;;;;;;;2.22;84.58;101646.84;5039866;28;20120;-61
2022/01/16 00:21:32;;;;;;;31.23;9.85;;;;;;;2.22;84.25;101652.03;5031814;28;20053;-58
2022/01/16 00:23:59;;;;;;;28.17;9.40;;;;;;;2.19;84.63;101649.47;5028583;28;20521;-59
2022/01/16 00:26:26;;;;;;;32.33;9.40;;;;;;;2.17;84.53;101632.19;5036787;28;20131;-61
2022/01/16 00:28:53;;;;;;;33.10;8.40;;;;;;;2.19;85.00;101636.47;5033846;28;20049;-61
2022/01/16 00:31:22;;;;;;;36.22;8.80;;;;;;;2.19;85.08;101641.66;5037215;28;20140;-60
2022/01/16 00:33:50;;;;;;;21.95;9.13;;;;;;;2.24;84.85;101641.63;5032812;28;20049;-60
2022/01/16 00:36:19;;;;;;;23.33;8.65;;;;;;;2.34;84.67;101669.25;5036490;28;20067;-60
2022/01/16 00:38:47;;;;;;;29.17;9.43;;;;;;;2.33;84.79;101675.34;5033765;28;20057;-58
2022/01/16 00:41:18;;;;;;;26.60;8.82;;;;;;;2.34;83.83;101676.19;5039971;28;20524;-61
2022/01/16 00:43:46;;;;;;;27.73;7.60;;;;;;;2.35;83.86;101664.94;5041545;28;20052;-61
2022/01/16 00:46:14;;;;;;;28.38;8.18;;;;;;;2.32;84.20;101652.81;5032811;28;20083;-62
2022/01/16 00:48:41;;;;;;;30.05;8.27;;;;;;;2.27;84.11;101646.81;5037973;28;20139;-59
2022/01/16 00:51:09;;;;;;;26.13;7.53;;;;;;;2.40;84.09;101614.66;5038077;28;20132;-59
2022/01/16 00:53:36;;;;;;;26.85;8.27;;;;;;;2.33;83.91;101605.16;5043090;28;20513;-60
2022/01/16 00:56:03;;;;;;;27.42;6.93;;;;;;;2.26;83.76;101619.13;5032326;28;20049;-58
2022/01/16 00:58:30;;;;;;;33.58;7.05;;;;;;;2.25;84.08;101614.75;5046852;28;20136;-58
2022/01/16 01:00:57;;;;;;;28.35;6.80;;;;;;;2.36;83.57;101617.28;5043390;28;20500;-61
2022/01/16 01:03:25;;;;;;;19.92;6.47;;;;;;;2.33;84.32;101612.97;5045398;28;20489;-61
2022/01/16 01:05:53;;;;;;;20.60;7.00;;;;;;;2.36;83.56;101631.13;5036962;28;20137;-60
2022/01/16 01:08:20;;;;;;;36.88;7.88;;;;;;;2.26;84.02;101621.72;5030262;28;20088;-60
2022/01/16 01:10:50;;;;;;;28.55;7.45;;;;;;;2.16;84.84;101631.31;5038353;28;20171;-59
2022/01/16 01:13:31;;;;;;;24.30;7.10;;;;;;;2.13;85.33;101620.09;5032914;28;20052;-60
2022/01/16 01:16:03;;;;;;;25.67;6.72;;;;;;;2.17;84.99;101614.00;5038213;28;20540;-60
2022/01/16 01:18:32;;;;;;;21.67;6.30;;;;;;;2.10;85.43;101592.38;5037676;28;20088;-59
2022/01/16 01:21:02;;;;;;;31.58;8.63;;;;;;;2.03;85.72;101599.38;5039563;28;20049;-57
2022/01/16 01:23:30;;;;;;;25.58;7.57;;;;;;;2.03;86.16;101590.75;5029827;28;20050;-61
2022/01/16 01:25:57;;;;;;;19.73;6.78;;;;;;;2.03;86.35;101594.19;5032534;28;20055;-61
2022/01/16 01:28:24;;;;;;;26.38;7.18;;;;;;;2.04;86.47;101584.66;5033918;28;20155;-61
2022/01/16 01:30:51;;;;;;;25.38;7.55;;;;;;;2.00;86.24;101589.00;5034890;28;20053;-60
2022/01/16 01:33:20;;;;;;;27.00;7.10;;;;;;;1.99;86.23;101578.66;5038847;28;20059;-60
2022/01/16 01:35:47;;;;;;;22.67;6.93;;;;;;;1.95;85.80;101590.78;5043864;28;20157;-59
2022/01/16 01:38:18;;;;;;;26.88;7.85;;;;;;;1.95;85.81;101575.22;5038641;28;20566;-60
2022/01/16 01:40:48;;;;;;;21.20;6.88;;;;;;;1.92;86.39;101575.22;5032427;28;20144;-59
2022/01/16 01:51:25;;;;;;;28.15;8.75;;;;;;;1.93;87.08;101454.03;5040837;28;20538;-62
2022/01/16 01:53:56;;;;;;;28.70;10.10;;;;;;;1.89;87.36;101462.72;5038020;28;20045;-62
2022/01/16 01:56:25;;;;;;;27.70;7.43;;;;;;;1.97;87.18;101451.41;5033522;28;20081;-59
2022/01/16 01:58:54;;;;;;;28.90;7.25;;;;;;;1.98;87.16;101460.94;5034929;28;20049;-60
2022/01/16 02:01:21;;;;;;;20.92;7.07;;;;;;;2.00;86.99;101485.13;5023598;28;20055;-57
2022/01/16 02:03:49;;;;;;;34.70;9.13;;;;;;;1.98;87.48;101486.00;5043480;28;20128;-60
2022/01/16 02:06:30;;;;;;;27.65;7.68;;;;;;;2.07;87.20;101511.03;5035256;28;20136;-60
2022/01/16 02:09:00;;;;;;;29.50;6.57;;;;;;;2.03;87.00;101494.66;5037000;28;20528;-59
2022/01/16 02:11:30;;;;;;;27.38;7.63;;;;;;;1.97;87.13;101485.16;5038747;28;20073;-60
2022/01/16 02:30:55;;;;;;;31.67;6.80;;;;;;;1.95;87.94;101478.28;5041268;28;20053;-61
2022/01/16 02:35:39;;;;;;;30.15;7.07;;;;;;;1.98;87.65;101489.50;5043412;28;20067;-60
2022/01/16 02:38:10;;;;;;;28.55;5.85;;;;;;;1.92;88.10;101492.13;5031784;28;20545;-60
2022/01/16 02:40:40;;;;;;;31.08;6.25;;;;;;;1.89;88.19;101501.69;5042444;28;20118;-60
2022/01/16 02:43:08;;;;;;;28.92;6.60;;;;;;;1.82;88.50;101494.84;5041258;28;20144;-59
2022/01/16 02:45:37;;;;;;;25.70;6.35;;;;;;;1.78;88.89;101494.84;5043069;28;20128;-60
2022/01/16 02:48:06;;;;;;;26.42;5.68;;;;;;;1.77;89.04;101493.13;5035743;28;20497;-60
2022/01/16 02:50:37;;;;;;;34.92;7.10;;;;;;;1.74;89.01;101482.78;5042004;28;20565;-60
2022/01/16 02:53:09;;;;;;;26.77;6.32;;;;;;;1.75;89.13;101488.81;5038802;28;20163;-59
2022/01/16 02:55:41;;;;;;;26.10;5.82;;;;;;;1.75;89.24;101479.28;5042713;28;20123;-61
2022/01/16 02:58:08;;;;;;;32.08;6.43;;;;;;;1.75;89.08;101473.25;5036054;28;20140;-61
2022/01/16 03:00:35;;;;;;;33.35;8.07;;;;;;;1.74;88.44;101466.34;5035895;28;20063;-61
2022/01/16 03:03:03;;;;;;;27.85;6.75;;;;;;;1.74;88.96;101462.00;5041881;28;20465;-60
2022/01/16 03:05:30;;;;;;;30.95;6.95;;;;;;;1.64;89.21;101462.97;5033464;28;20129;-61
2022/01/16 03:07:57;;;;;;;24.13;6.50;;;;;;;1.59;89.96;101453.50;5034838;28;20128;-61
2022/01/16 03:12:52;;;;;;;26.25;6.75;;;;;;;1.51;90.12;101454.44;5037412;28;20061;-60
2022/01/16 03:15:20;;;;;;;28.08;7.30;;;;;;;1.42;90.18;101444.13;5030296;28;20046;-60
2022/01/16 03:21:53;;;;;;;25.27;7.25;;;;;;;1.32;91.24;101420.88;5041689;28;20136;-59
2022/01/16 03:23:24;;;;;;;32.20;7.53;;;;;;;1.26;91.44;101411.38;5027080;28;20072;-61
2022/01/16 03:25:52;;;;;;;33.55;7.55;;;;;;;1.22;92.20;101391.56;5037652;28;20107;-60
2022/01/16 03:28:20;;;;;;;36.45;7.78;;;;;;;1.16;92.19;101399.38;5033029;28;20042;-60
2022/01/16 03:30:47;;;;;;;30.92;6.80;;;;;;;1.09;92.40;101400.31;5029552;28;20054;-60
2022/01/16 03:33:15;;;;;;;27.15;6.25;;;;;;;0.93;92.87;101382.25;5036294;28;20041;-58
2022/01/16 03:35:43;;;;;;;30.80;7.72;;;;;;;0.88;93.27;101376.25;5040155;28;20049;-59
2022/01/16 03:38:10;;;;;;;27.98;7.28;;;;;;;0.83;94.07;101382.34;5038477;28;20128;-60
2022/01/16 03:40:37;;;;;;;34.47;6.60;;;;;;;0.82;93.50;101383.22;5041371;28;20589;-62
2022/01/16 03:43:12;;;;;;;28.88;6.45;;;;;;;0.78;94.20;101368.56;5033074;28;20080;-59
2022/01/16 03:45:44;;;;;;;24.25;6.03;;;;;;;0.67;94.85;101356.50;5042629;28;20059;-60
2022/01/16 03:48:12;;;;;;;33.97;6.00;;;;;;;0.67;94.78;101353.06;5037544;28;20115;-59
2022/01/16 03:50:40;;;;;;;23.85;6.10;;;;;;;0.59;95.07;101350.53;5040939;28;20052;-60
2022/01/16 03:53:07;;;;;;;38.05;6.60;;;;;;;0.57;95.40;101357.44;5051006;22;20068;-65
2022/01/16 03:55:34;;;;;;;31.77;5.65;;;;;;;0.59;95.29;101347.94;5048701;28;20409;-65
2022/01/16 03:58:03;;;;;;;26.73;5.93;;;;;;;0.51;95.40;101341.94;5043560;28;20058;-63
2022/01/16 04:00:30;;;;;;;34.78;5.97;;;;;;;0.55;95.48;101345.38;5047785;28;20049;-62
2022/01/16 04:02:57;;;;;;;24.13;5.72;;;;;;;0.52;94.79;101337.63;5049801;28;20051;-64
2022/01/16 04:05:25;;;;;;;33.13;6.15;;;;;;;0.43;95.23;101329.03;5047497;28;20099;-63
2022/01/16 04:07:52;;;;;;;25.92;5.88;;;;;;;0.50;95.56;101328.13;5055787;28;20440;-63
2022/01/16 04:10:21;;;;;;;30.70;6.38;;;;;;;0.44;95.21;101330.75;5035585;28;20558;-63
2022/01/16 04:12:48;;;;;;;30.00;6.15;;;;;;;0.36;95.71;101321.28;5048542;28;20041;-63
2022/01/16 04:17:44;;;;;;;34.30;6.47;;;;;;;0.32;95.82;101315.31;5056818;28;20695;-64
2022/01/16 04:20:15;;;;;;;23.10;5.57;;;;;;;0.28;96.25;101302.38;5052565;28;20052;-63
2022/01/16 04:22:45;;;;;;;28.58;5.40;;;;;;;0.22;96.42;101296.34;5048940;28;20057;-63
2022/01/16 04:25:13;;;;;;;24.33;5.93;;;;;;;0.21;96.90;101298.94;5047059;28;20124;-63
2022/01/16 04:27:41;;;;;;;35.75;6.40;;;;;;;0.24;96.69;101293.75;5041962;28;20087;-63
2022/01/16 04:30:09;;;;;;;24.08;5.38;;;;;;;0.19;96.76;101283.44;5032935;28;20172;-63
2022/01/16 04:32:37;;;;;;;31.50;6.18;;;;;;;0.12;97.06;101286.06;5035793;28;21058;-63
2022/01/16 04:35:05;;;;;;;23.40;5.55;;;;;;;0.09;96.95;101278.28;5054731;28;20052;-63
2022/01/16 04:37:32;;;;;;;27.00;5.50;;;;;;;0.06;97.29;101291.28;5049341;28;20103;-63
2022/01/16 04:40:01;;;;;;;35.35;6.78;;;;;;;0.09;97.68;101276.59;5058823;28;20102;-63
2022/01/16 04:45:14;;;;;;;30.48;6.53;;;;;;;-0.06;98.33;101269.75;5052412;28;20584;-63
2022/01/16 04:47:42;;;;;;;26.00;5.60;;;;;;;-0.04;98.74;101264.59;5050405;28;20056;-64
2022/01/16 04:50:13;;;;;;;36.75;6.68;;;;;;;-0.01;98.52;101268.00;5048699;28;20421;-63
2022/01/16 04:52:42;;;;;;;36.60;6.18;;;;;;;-0.10;98.46;101264.59;5045152;28;20060;-63
2022/01/16 04:55:11;;;;;;;33.20;7.43;;;;;;;-0.10;99.04;101262.84;5054302;28;20072;-63
2022/01/16 04:57:38;;;;;;;23.45;5.57;;;;;;;-0.15;99.30;101256.84;5052865;28;20136;-64
2022/01/16 05:00:09;;;;;;;36.17;7.55;;;;;;;-0.12;99.10;101248.22;5048057;28;20051;-64
2022/01/16 05:02:36;;;;;;;28.50;6.28;;;;;;;-0.12;98.99;101253.41;5049213;28;20656;-63
2022/01/16 05:05:04;;;;;;;29.23;6.05;;;;;;;-0.15;99.04;101243.91;5049953;28;20401;-63
2022/01/16 05:07:31;;;;;;;36.83;6.57;;;;;;;-0.20;99.36;101244.81;5052524;28;20058;-63
2022/01/16 05:09:58;;;;;;;36.60;7.05;;;;;;;-0.15;99.92;101246.50;5044035;28;20049;-64
2022/01/16 05:12:32;;;;;;;29.40;6.03;;;;;;;-0.19;99.41;101242.19;5054381;28;20064;-63
2022/01/16 05:17:45;;;;;;;39.15;6.53;;;;;;;-0.28;100.00;101240.50;5047537;28;20057;-65
2022/01/16 05:20:13;;;;;;;23.73;6.03;;;;;;;-0.30;100.00;101237.09;5052857;28;20141;-64
2022/01/16 05:22:40;;;;;;;53.17;7.47;;;;;;;-0.30;100.00;101239.69;5055504;28;20353;-65
2022/01/16 05:25:08;;;;;;;30.05;6.68;;;;;;;-0.34;100.00;101235.38;5030958;28;20111;-62
2022/01/16 05:27:35;;;;;;;23.67;6.30;;;;;;;-0.30;100.00;101234.50;5049815;28;20063;-64
2022/01/16 05:30:03;;;;;;;27.20;7.20;;;;;;;-0.30;100.00;101237.09;5055033;28;20126;-64
2022/01/16 05:32:30;;;;;;;29.60;6.75;;;;;;;-0.34;100.00;101224.19;5048769;28;20526;-64
2022/01/16 05:34:57;;;;;;;27.42;6.80;;;;;;;-0.39;100.00;101211.25;5029428;28;20044;-64
2022/01/16 05:37:24;;;;;;;38.50;8.98;;;;;;;-0.42;100.00;101206.09;5056943;28;20055;-64
2022/01/16 05:39:52;;;;;;;22.67;7.32;;;;;;;-0.37;100.00;101206.06;5056453;28;20080;-64
2022/01/16 05:42:20;;;;;;;31.52;7.10;;;;;;;-0.40;100.00;101203.53;5052897;28;20056;-64
2022/01/16 05:44:47;;;;;;;32.30;6.90;;;;;;;-0.41;100.00;101197.47;5048799;28;20446;-62
2022/01/16 05:47:15;;;;;;;30.70;8.10;;;;;;;-0.46;100.00;101198.34;5051575;28;20053;-63
2022/01/16 05:49:42;;;;;;;39.47;6.90;;;;;;;-0.44;100.00;101196.63;5035650;28;20052;-63
2022/01/16 05:52:09;;;;;;;25.10;6.43;;;;;;;-0.45;100.00;101193.19;5052533;28;20077;-64
2022/01/16 05:54:36;;;;;;;29.67;8.05;;;;;;;-0.57;100.00;101183.75;5052158;28;20045;-64
2022/01/16 05:57:04;;;;;;;27.13;6.75;;;;;;;-0.53;100.00;101190.63;5050212;28;20523;-63
2022/01/16 05:59:31;;;;;;;40.58;7.80;;;;;;;-0.51;100.00;101186.31;5045690;28;20057;-63
2022/01/16 06:01:58;;;;;;;31.55;7.80;;;;;;;-0.49;100.00;101188.03;5047335;28;20392;-63
2022/01/16 06:04:25;;;;;;;29.17;8.52;;;;;;;-0.59;100.00;101188.06;5051395;28;20055;-63
2022/01/16 06:06:52;;;;;;;39.05;8.55;;;;;;;-0.62;100.00;101184.66;5058019;28;20055;-63
2022/01/16 06:09:19;;;;;;;28.67;8.65;;;;;;;-0.60;100.00;101188.06;5031153;28;20528;-64
2022/01/16 06:11:47;;;;;;;32.30;8.90;;;;;;;-0.61;100.00;101184.63;5035095;28;20171;-64
2022/01/16 06:14:14;;;;;;;31.65;7.95;;;;;;;-0.62;100.00;101180.34;5051278;28;20049;-64
2022/01/16 06:16:41;;;;;;;35.03;8.02;;;;;;;-0.56;100.00;101182.03;5053085;28;20053;-63
2022/01/16 06:19:08;;;;;;;36.60;9.00;;;;;;;-0.59;100.00;101177.72;5050303;28;20059;-61
2022/01/16 06:21:35;;;;;;;39.30;10.45;;;;;;;-0.66;100.00;101177.78;5053175;28;20049;-65
2022/01/16 06:24:03;;;;;;;35.47;10.18;;;;;;;-0.65;100.00;101162.22;5051118;28;20152;-64
2022/01/16 06:26:31;;;;;;;30.20;10.18;;;;;;;-0.75;100.00;101160.56;5027386;28;20049;-63
2022/01/16 06:28:58;;;;;;;37.63;10.18;;;;;;;-0.70;100.00;101163.97;5053459;28;20058;-64
2022/01/16 06:31:25;;;;;;;32.63;10.25;;;;;;;-0.68;100.00;101163.97;5050471;28;20045;-65
2022/01/16 06:33:53;;;;;;;42.88;11.85;;;;;;;-0.70;100.00;101160.53;5052365;28;20102;-64
2022/01/16 06:36:20;;;;;;;40.92;11.43;;;;;;;-0.80;100.00;101157.13;5044942;28;20053;-65
2022/01/16 06:38:48;;;;;;;28.50;11.73;;;;;;;-0.78;100.00;101168.31;5057973;28;20276;-64
2022/01/16 06:41:15;;;;;;;25.27;11.20;;;;;;;-0.77;100.00;101163.16;5044187;28;20051;-65
2022/01/16 06:43:42;;;;;;;29.45;11.65;;;;;;;-0.77;100.00;101157.09;5045018;28;20045;-65
2022/01/16 06:46:09;;;;;;;34.38;11.18;;;;;;;-0.80;100.00;101159.72;5050600;28;20467;-65
2022/01/16 06:48:37;;;;;;;35.28;12.50;;;;;;;-0.86;100.00;101165.75;5046251;28;20048;-64
2022/01/16 06:51:04;;;;;;;27.33;10.48;;;;;;;-0.86;100.00;101173.50;5041347;28;20489;-64
2022/01/16 06:53:32;;;;;;;27.20;10.77;;;;;;;-0.89;100.00;101168.38;5053415;28;20056;-64
2022/01/16 06:56:00;;;;;;;36.42;12.10;;;;;;;-0.85;100.00;101171.81;5008985;28;20111;-64
2022/01/16 06:58:27;;;;;;;33.30;12.30;;;;;;;-0.82;100.00;101172.63;5037171;28;20139;-64
2022/01/16 07:00:54;;;;;;;32.95;12.20;;;;;;;-0.89;100.00;101186.47;5039053;28;20053;-65
2022/01/16 07:03:21;;;;;;;34.17;12.88;;;;;;;-0.95;100.00;101177.84;5045953;28;20059;-64
2022/01/16 07:05:49;;;;;;;36.72;13.27;;;;;;;-0.92;100.00;101170.09;5043212;28;20132;-63
2022/01/16 07:08:16;;;;;;;36.55;13.00;;;;;;;-0.90;100.00;101173.53;5038725;28;20076;-64
2022/01/16 07:10:43;;;;;;;39.20;12.82;;;;;;;-0.91;100.00;101185.59;5046356;28;20080;-65
2022/01/16 07:13:10;;;;;;;33.38;13.90;;;;;;;-0.94;100.00;101179.59;5039596;28;20133;-63
2022/01/16 07:15:37;;;;;;;35.88;13.20;;;;;;;-0.94;100.00;101177.00;5048497;28;20057;-64
2022/01/16 07:18:04;;;;;;;32.92;13.40;;;;;;;-0.87;100.00;101181.28;5043964;28;20045;-65
2022/01/16 07:20:32;;;;;;;34.42;14.43;;;;;;;-0.91;100.00;101179.56;5022624;28;20055;-64
2022/01/16 07:22:59;;;;;;;41.00;13.65;;;;;;;-0.89;100.00;101185.59;5041131;28;20057;-64
2022/01/16 07:25:26;;;;;;;32.95;12.65;;;;;;;-0.85;100.00;101190.75;5043059;28;21341;-65
2022/01/16 07:27:53;;;;;;;33.08;14.07;;;;;;;-0.72;100.00;101188.13;5042035;28;20052;-64
2022/01/16 07:30:20;;;;;;;38.40;14.65;;;;;;;-0.76;100.00;101195.03;5033111;28;20125;-64
2022/01/16 07:32:47;;;;;;;34.83;14.68;;;;;;;-0.77;100.00;101196.78;5021508;28;20050;-65
2022/01/16 07:35:15;;;;;;;41.30;15.60;;;;;;;-0.75;100.00;101190.72;5042956;28;20143;-64
2022/01/16 07:38:03;;;;;;;33.90;14.35;;;;;;;-0.69;100.00;101188.97;5046809;28;20569;-63
2022/01/16 07:40:33;;;;;;;32.90;15.07;;;;;;;-0.63;100.00;101191.56;5038497;28;20068;-65
2022/01/16 07:43:00;;;;;;;33.83;14.63;;;;;;;-0.67;100.00;101189.84;5040164;28;20069;-64
2022/01/16 07:45:27;;;;;;;35.58;14.38;;;;;;;-0.63;100.00;101190.66;5035787;28;20132;-65
2022/01/16 07:47:55;;;;;;;33.72;15.00;;;;;;;-0.57;100.00;101178.59;5046333;28;20052;-62
2022/01/16 07:50:22;;;;;;;34.63;15.90;;;;;;;-0.60;100.00;101186.34;5035981;28;20067;-64
2022/01/16 07:52:49;;;;;;;35.78;15.40;;;;;;;-0.48;100.00;101189.75;5040782;28;20053;-64
2022/01/16 07:55:18;;;;;;;34.83;15.05;;;;;;;-0.47;100.00;101192.31;5021347;28;20049;-64
2022/01/16 07:57:45;;;;;;;39.78;16.85;;;;;;;-0.55;100.00;101186.31;5041689;28;20050;-64
2022/01/16 08:00:30;;;;;;;29.40;15.45;;;;;;;-0.55;100.00;101199.25;5040600;28;20149;-64
2022/01/16 08:02:58;;;;;;;39.05;15.13;;;;;;;-0.46;100.00;101198.34;5042092;28;20044;-64
2022/01/16 08:05:26;;;;;;;27.17;15.02;;;;;;;-0.45;100.00;101185.44;5044094;28;20068;-63
2022/01/16 08:07:53;;;;;;;29.80;15.50;;;;;;;-0.50;100.00;101189.75;5041406;28;20128;-63
2022/01/16 08:10:20;;;;;;;30.00;15.60;;;;;;;-0.43;100.00;101183.69;5040816;28;20052;-63
2022/01/16 08:12:47;;;;;;;34.47;16.48;;;;;;;-0.30;100.00;101171.56;5049344;28;20052;-62
2022/01/16 08:15:15;;;;;;;39.75;15.88;;;;;;;-0.24;100.00;101162.88;5051912;28;20055;-64
2022/01/16 08:17:42;;;;;;;30.38;15.02;;;;;;;-0.23;100.00;101164.59;5039906;28;20137;-65
2022/01/16 08:20:10;;;;;;;40.35;16.20;;;;;;;-0.19;100.00;101174.94;5040813;28;20136;-65
2022/01/16 08:22:37;;;;;;;33.00;17.27;;;;;;;-0.07;100.00;101172.28;5039760;28;20064;-64
2022/01/16 08:25:05;;;;;;;39.53;16.27;;;;;;;-0.05;100.00;101162.75;5041503;28;20077;-64
2022/01/16 08:27:32;;;;;;;38.70;17.05;;;;;;;0.02;100.00;101162.72;5028748;28;20141;-64
2022/01/16 08:30:05;;;;;;;34.15;16.77;;;;;;;0.11;100.00;101165.25;5044335;28;20136;-64
2022/01/16 08:32:32;;;;;;;36.95;17.50;;;;;;;0.26;100.00;101157.34;5040719;28;20053;-63
2022/01/16 08:35:00;;;;;;;32.83;16.88;;;;;;;0.34;100.00;101150.38;5045957;28;20164;-63
2022/01/16 08:37:27;;;;;;;34.80;17.95;;;;;;;0.35;100.00;101140.88;5043773;28;20640;-64
2022/01/16 08:39:54;;;;;;;38.75;19.45;;;;;;;0.18;100.00;101144.50;5023173;28;20382;-64
2022/01/16 08:42:21;;;;;;;31.55;18.38;;;;;;;0.08;100.00;101137.66;5019834;28;20060;-65
2022/01/16 08:44:49;;;;;;;36.30;17.58;;;;;;;0.19;100.00;101143.63;5039178;28;20047;-65
2022/01/16 08:47:17;;;;;;;35.47;18.25;;;;;;;0.26;100.00;101139.22;5040873;28;20052;-64
2022/01/16 08:49:44;;;;;;;37.20;19.08;;;;;;;0.45;100.00;101127.84;5039765;28;20049;-63
2022/01/16 08:52:13;;;;;;;37.72;19.40;;;;;;;0.52;100.00;101133.81;5041546;28;20101;-62
2022/01/16 08:54:40;;;;;;;42.72;19.58;;;;;;;0.60;100.00;101144.97;5050501;28;20061;-63
2022/01/16 08:57:07;;;;;;;44.75;18.83;;;;;;;0.65;100.00;101145.78;5051488;28;20040;-62
2022/01/16 08:59:35;;;;;;;44.55;19.23;;;;;;;0.55;100.00;101130.34;5033968;28;20045;-62
2022/01/16 09:02:02;;;;;;;36.67;17.83;;;;;;;0.67;100.00;101125.03;5046020;28;20131;-63
2022/01/16 09:04:29;;;;;;;36.17;17.90;;;;;;;0.58;100.00;101122.53;5025106;28;20057;-64
2022/01/16 09:06:56;;;;;;;36.22;18.80;;;;;;;0.69;100.00;101125.91;5038507;28;20051;-61
2022/01/16 09:09:24;;;;;;;41.67;19.42;;;;;;;0.71;100.00;101126.72;5038270;28;20053;-62
2022/01/16 09:11:51;;;;;;;32.13;18.10;;;;;;;0.63;100.00;101123.34;5038950;28;20155;-63
2022/01/16 09:14:23;;;;;;;36.78;20.05;;;;;;;0.79;100.00;101113.69;5041256;28;20552;-62
2022/01/16 09:16:50;;;;;;;32.70;18.75;;;;;;;0.91;100.00;101114.41;5039494;28;20060;-62
2022/01/16 09:19:17;;;;;;;34.05;18.20;;;;;;;1.17;100.00;101121.00;5052763;28;20049;-64
2022/01/16 09:21:44;;;;;;;33.40;18.38;;;;;;;1.23;98.98;101116.63;5040900;28;20053;-64
2022/01/16 09:24:12;;;;;;;46.55;18.38;;;;;;;1.28;99.03;101124.34;5050537;28;20052;-62
2022/01/16 09:26:39;;;;;;;33.55;18.10;;;;;;;1.27;98.40;101122.63;5051412;28;20495;-61
2022/01/16 09:29:06;;;;;;;49.47;18.75;;;;;;;1.33;98.34;101117.34;5045333;28;20051;-62
2022/01/16 09:31:33;;;;;;;41.10;20.13;;;;;;;1.49;98.22;101134.44;5041632;28;20140;-62
2022/01/16 09:34:00;;;;;;;39.72;19.48;;;;;;;1.42;97.15;101131.94;5041864;28;20052;-63
2022/01/16 09:36:28;;;;;;;39.45;18.98;;;;;;;1.39;97.18;101130.22;5045388;28;20075;-63
2022/01/16 09:38:55;;;;;;;42.22;18.50;;;;;;;1.47;96.62;101122.34;5055241;28;20127;-63
2022/01/16 09:41:22;;;;;;;37.25;18.63;;;;;;;1.52;96.93;101124.00;5031116;28;20385;-64
2022/01/16 09:43:50;;;;;;;31.90;17.27;;;;;;;1.47;96.36;101123.22;5043988;28;20049;-63
2022/01/16 09:46:17;;;;;;;33.10;19.50;;;;;;;1.59;96.20;101119.59;5053701;28;20084;-64
2022/01/16 09:48:45;;;;;;;36.15;19.85;;;;;;;1.64;96.13;101114.34;5043544;28;20126;-65
2022/01/16 09:51:12;;;;;;;32.58;18.17;;;;;;;1.64;95.38;101119.53;5053821;28;20059;-64
2022/01/16 09:53:42;;;;;;;34.38;17.88;;;;;;;1.47;96.21;101120.63;5039668;28;20049;-64
2022/01/16 09:56:10;;;;;;;35.60;17.83;;;;;;;1.65;96.02;101116.06;5047689;28;20052;-63
2022/01/16 09:58:39;;;;;;;36.90;20.05;;;;;;;1.77;95.58;101115.88;5047076;28;20057;-64
2022/01/16 10:01:06;;;;;;;36.60;19.67;;;;;;;1.76;95.71;101111.59;5029062;28;20044;-63
2022/01/16 10:03:38;;;;;;;33.38;18.85;;;;;;;1.81;95.78;101120.16;5039127;28;20323;-63
2022/01/16 10:06:22;;;;;;;32.28;18.80;;;;;;;1.66;95.94;101121.22;5045140;28;20059;-63
2022/01/16 10:08:52;;;;;;;37.45;18.75;;;;;;;1.57;97.13;101120.50;5044858;28;20056;-63
2022/01/16 10:11:32;;;;;;;36.33;19.88;;;;;;;1.37;97.59;101134.59;5037343;28;20045;-64
2022/01/16 10:14:11;;;;;;;34.40;17.92;;;;;;;1.09;99.91;101133.22;5043272;28;20053;-64
2022/01/16 10:16:40;;;;;;;35.55;19.17;;;;;;;1.10;100.00;101132.34;5027187;28;20140;-64
2022/01/16 10:19:23;;;;;;;34.28;18.90;;;;;;;1.14;100.00;101134.03;5049551;28;20056;-63
2022/01/16 10:21:50;;;;;;;39.45;20.60;;;;;;;1.19;100.00;101127.06;5025120;28;20128;-63
2022/01/16 10:24:26;;;;;;;36.65;18.88;;;;;;;1.12;100.00;101130.59;5046785;28;20281;-63
2022/01/16 10:27:14;;;;;;;36.22;20.13;;;;;;;1.00;100.00;101127.28;4991877;28;20059;-63
2022/01/16 10:29:52;;;;;;;34.97;19.50;;;;;;;1.00;100.00;101135.06;5043831;28;20589;-62
2022/01/16 10:32:29;;;;;;;38.50;21.15;;;;;;;0.89;100.00;101138.63;5036351;28;20044;-62
2022/01/16 10:35:14;;;;;;;32.42;19.13;;;;;;;0.91;100.00;101142.94;5043295;28;20501;-63
2022/01/16 10:37:44;;;;;;;32.60;18.52;;;;;;;0.81;100.00;101153.41;5046106;28;20537;-64
2022/01/16 10:40:14;;;;;;;30.20;18.48;;;;;;;0.65;100.00;101160.47;5022423;28;20049;-62
2022/01/16 10:42:47;;;;;;;40.33;20.95;;;;;;;0.61;100.00;101163.97;5049192;28;20064;-62
2022/01/16 10:45:16;;;;;;;33.50;19.58;;;;;;;0.42;100.00;101137.38;5047298;28;20052;-61
2022/01/16 10:47:53;;;;;;;35.13;21.27;;;;;;;0.30;100.00;101142.66;5023173;28;20426;-63
2022/01/16 10:50:28;;;;;;;35.30;22.60;;;;;;;0.39;100.00;101146.03;5048292;28;20061;-62
2022/01/16 10:53:03;;;;;;;36.92;22.35;;;;;;;0.30;100.00;101150.44;5041961;28;20063;-62
2022/01/16 10:55:48;;;;;;;30.23;18.17;;;;;;;0.25;100.00;101147.88;5048582;28;20056;-63
2022/01/16 10:58:27;;;;;;;39.92;22.20;;;;;;;0.25;100.00;101147.88;5048264;28;20040;-63
2022/01/16 11:01:03;;;;;;;42.65;22.95;;;;;;;0.26;100.00;101136.63;5038446;28;20061;-60
2022/01/16 11:03:41;;;;;;;39.85;23.05;;;;;;;0.45;100.00;101138.22;5020364;28;20505;-63
2022/01/16 11:06:08;;;;;;;47.38;23.90;;;;;;;0.42;100.00;101129.63;5039417;28;20132;-63
2022/01/16 11:08:36;;;;;;;42.08;23.30;;;;;;;0.40;100.00;101132.19;5038390;28;20142;-63
2022/01/16 11:11:03;;;;;;;33.50;21.83;;;;;;;0.47;100.00;101133.00;5031707;28;20522;-64
2022/01/16 11:13:32;;;;;;;42.03;24.33;;;;;;;0.38;100.00;101136.53;5033980;28;20051;-64
2022/01/16 11:16:03;;;;;;;42.22;23.58;;;;;;;0.34;100.00;101132.25;5035265;28;20045;-64
2022/01/16 11:18:32;;;;;;;39.20;23.33;;;;;;;0.46;100.00;101141.66;5038232;28;20053;-63
2022/01/16 11:23:33;;;;;;;45.78;26.05;;;;;;;0.45;100.00;101142.50;5040891;28;20131;-63
2022/01/16 11:26:06;;;;;;;45.83;24.15;;;;;;;0.43;100.00;101132.19;5032011;28;20056;-64
2022/01/16 11:28:33;;;;;;;45.97;25.65;;;;;;;0.37;100.00;101119.28;5020706;28;20428;-63
2022/01/16 11:31:04;;;;;;;44.85;24.55;;;;;;;0.49;100.00;101134.69;5050156;28;20052;-63
2022/01/16 11:33:33;;;;;;;49.35;25.92;;;;;;;0.53;100.00;101127.75;5045976;28;20135;-62
2022/01/16 11:36:06;;;;;;;45.00;25.85;;;;;;;0.60;100.00;101142.38;5050077;28;20059;-63
2022/01/16 11:38:41;;;;;;;42.03;24.67;;;;;;;0.59;100.00;101143.28;5037045;28;20077;-64
2022/01/16 11:41:13;;;;;;;51.72;25.35;;;;;;;0.67;100.00;101135.41;5027823;28;20312;-64
2022/01/16 11:43:45;;;;;;;44.67;25.00;;;;;;;0.64;100.00;101145.81;5059236;28;20106;-64
2022/01/16 11:46:17;;;;;;;42.63;24.20;;;;;;;0.67;100.00;101133.66;5054082;28;20049;-64
2022/01/16 11:48:59;;;;;;;43.75;24.15;;;;;;;0.73;100.00;101137.94;5026562;28;20092;-63
2022/01/16 11:51:39;;;;;;;48.20;25.90;;;;;;;0.66;100.00;101134.53;5019665;28;20047;-63
2022/01/16 11:54:07;;;;;;;46.10;25.85;;;;;;;0.78;100.00;101122.34;5040451;28;20050;-63
2022/01/16 11:56:38;;;;;;;45.88;25.50;;;;;;;0.89;100.00;101133.44;5051918;28;20057;-64
2022/01/16 11:59:20;;;;;;;41.83;24.95;;;;;;;0.83;100.00;101116.22;5031838;28;20135;-64
2022/01/16 12:02:08;;;;;;;41.17;24.58;;;;;;;0.82;100.00;101114.53;5043803;28;20051;-64
2022/01/16 12:04:38;;;;;;;44.42;24.83;;;;;;;0.86;100.00;101126.56;5044973;28;20049;-63
2022/01/16 12:07:16;;;;;;;45.65;25.40;;;;;;;0.90;100.00;101122.19;5039104;28;20053;-65